createdAt,value
2022-09-28T00:00:15.643Z,4.60
2022-09-28T00:02:42.399Z,4.38
2022-09-28T00:05:09.182Z,4.68
2022-09-28T00:07:39.122Z,4.32
2022-09-28T00:10:06.187Z,8.85
2022-09-28T00:12:32.794Z,5.70
2022-09-28T00:14:59.453Z,6.45
2022-09-28T00:17:26.026Z,4.40
2022-09-28T00:19:52.662Z,5.57
2022-09-28T00:22:19.272Z,7.63
2022-09-28T00:24:47.244Z,4.22
2022-09-28T00:27:13.933Z,9.20
2022-09-28T00:29:40.694Z,8.13
2022-09-28T00:32:11.064Z,6.55
2022-09-28T00:34:39.523Z,7.35
2022-09-28T00:37:07.111Z,6.70
2022-09-28T00:39:33.710Z,6.50
2022-09-28T00:42:02.478Z,7.65
2022-09-28T00:44:42.057Z,6.72
2022-09-28T00:47:19.907Z,6.82
2022-09-28T00:49:50.889Z,7.22
2022-09-28T00:52:22.970Z,9.80
2022-09-28T00:54:51.430Z,9.32
2022-09-28T00:57:21.163Z,7.28
2022-09-28T00:59:47.855Z,8.95
2022-09-28T01:02:14.550Z,8.98
2022-09-28T01:04:41.243Z,7.80
2022-09-28T01:07:08.985Z,7.32
2022-09-28T01:09:38.983Z,8.82
2022-09-28T01:12:05.888Z,9.35
2022-09-28T01:14:33.993Z,11.52
2022-09-28T01:17:06.888Z,7.80
2022-09-28T01:20:06.197Z,8.70
2022-09-28T01:23:19.474Z,9.50
2022-09-28T01:25:53.018Z,11.00
2022-09-28T01:28:23.594Z,10.68
2022-09-28T01:30:59.742Z,11.52
2022-09-28T01:33:31.365Z,11.60
2022-09-28T01:36:05.901Z,18.02
2022-09-28T01:38:39.350Z,11.88
2022-09-28T01:41:07.226Z,14.07
2022-09-28T01:43:39.132Z,12.13
2022-09-28T01:46:12.762Z,14.38
2022-09-28T01:48:46.467Z,14.35
2022-09-28T01:51:19.264Z,15.10
2022-09-28T01:53:51.319Z,15.25
2022-09-28T01:56:25.757Z,15.07
2022-09-28T01:58:57.530Z,14.68
2022-09-28T02:01:29.071Z,19.30
2022-09-28T02:04:05.348Z,21.88
2022-09-28T02:06:36.326Z,18.23
2022-09-28T02:09:08.130Z,18.33
2022-09-28T02:11:48.362Z,17.85
2022-09-28T02:14:18.397Z,21.50
2022-09-28T02:16:49.022Z,19.17
2022-09-28T02:19:18.270Z,19.63
2022-09-28T02:21:53.796Z,19.45
2022-09-28T02:24:26.947Z,23.40
2022-09-28T02:26:58.906Z,16.27
2022-09-28T02:29:32.133Z,17.70
2022-09-28T02:31:58.868Z,20.77
2022-09-28T02:34:26.136Z,17.08
2022-09-28T02:36:52.953Z,16.48
2022-09-28T02:39:21.421Z,21.00
2022-09-28T02:41:55.353Z,25.90
2022-09-28T02:44:43.311Z,25.67
2022-09-28T02:47:21.365Z,22.67
2022-09-28T02:49:54.235Z,26.02
2022-09-28T02:52:46.127Z,25.75
2022-09-28T02:55:24.182Z,26.35
2022-09-28T02:58:06.170Z,29.38
2022-09-28T03:00:40.871Z,22.23
2022-09-28T03:03:16.658Z,25.38
2022-09-28T03:05:52.892Z,26.08
2022-09-28T03:08:24.582Z,25.02
2022-09-28T03:10:58.667Z,25.98
2022-09-28T03:13:27.042Z,24.45
2022-09-28T03:16:08.814Z,22.25
2022-09-28T03:18:35.838Z,24.40
2022-09-28T03:21:04.473Z,23.75
2022-09-28T03:23:31.127Z,19.63
2022-09-28T03:25:58.460Z,20.27
2022-09-28T03:28:25.216Z,20.83
2022-09-28T03:30:52.675Z,20.13
2022-09-28T03:33:20.922Z,20.95
2022-09-28T03:35:47.610Z,19.98
2022-09-28T03:38:14.486Z,16.55
2022-09-28T03:40:42.410Z,15.70
2022-09-28T03:43:09.722Z,19.70
2022-09-28T03:45:36.539Z,15.48
2022-09-28T03:48:03.234Z,15.55
2022-09-28T03:50:31.279Z,13.38
2022-09-28T03:53:02.748Z,12.55
2022-09-28T03:55:29.381Z,13.77
2022-09-28T03:57:56.258Z,15.25
2022-09-28T04:00:23.087Z,12.95
2022-09-28T04:02:49.696Z,18.00
2022-09-28T04:05:16.269Z,15.80
2022-09-28T04:07:44.280Z,16.83
2022-09-28T04:10:11.144Z,14.98
2022-09-28T04:12:38.038Z,15.73
2022-09-28T04:15:06.354Z,14.35
2022-09-28T04:17:36.508Z,17.23
2022-09-28T04:20:08.770Z,15.07
2022-09-28T04:22:57.622Z,14.43
2022-09-28T04:25:24.326Z,14.95
2022-09-28T04:27:50.922Z,15.55
2022-09-28T04:30:17.882Z,16.25
2022-09-28T04:32:46.149Z,15.65
2022-09-28T04:35:13.351Z,13.02
2022-09-28T04:37:39.912Z,17.13
2022-09-28T04:40:09.105Z,15.07
2022-09-28T04:42:35.950Z,13.27
2022-09-28T04:45:02.594Z,16.33
2022-09-28T04:47:29.714Z,13.75
2022-09-28T04:50:15.018Z,15.02
2022-09-28T04:53:16.835Z,10.82
2022-09-28T04:55:44.810Z,11.88
2022-09-28T04:58:11.451Z,12.35
2022-09-28T05:00:38.119Z,12.73
2022-09-28T05:03:25.399Z,11.75
2022-09-28T05:06:15.478Z,10.68
2022-09-28T05:08:47.026Z,10.57
2022-09-28T05:11:15.640Z,12.05
2022-09-28T05:13:44.786Z,10.40
2022-09-28T05:16:14.859Z,12.45
2022-09-28T05:19:07.743Z,11.93
2022-09-28T05:21:34.393Z,14.18
2022-09-28T05:24:03.206Z,12.63
2022-09-28T05:26:31.399Z,14.70
2022-09-28T05:28:58.882Z,11.88
2022-09-28T05:31:44.274Z,13.45
2022-09-28T05:34:29.598Z,11.50
2022-09-28T05:37:00.196Z,12.98
2022-09-28T05:39:27.373Z,12.50
2022-09-28T05:41:55.907Z,10.65
2022-09-28T05:44:23.534Z,12.02
2022-09-28T05:46:52.605Z,12.07
2022-09-28T05:49:19.339Z,12.77
2022-09-28T05:51:47.091Z,11.40
2022-09-28T05:54:14.002Z,13.05
2022-09-28T05:56:50.085Z,13.60
2022-09-28T05:59:18.199Z,9.77
2022-09-28T06:01:44.946Z,14.55
2022-09-28T06:04:11.899Z,14.98
2022-09-28T06:06:41.060Z,15.18
2022-09-28T06:09:07.826Z,14.80
2022-09-28T06:12:06.775Z,14.70
2022-09-28T06:14:42.833Z,13.55
2022-09-28T06:17:10.711Z,14.52
2022-09-28T06:19:37.705Z,16.05
2022-09-28T06:22:16.617Z,16.10
2022-09-28T06:24:50.000Z,18.42
2022-09-28T06:27:16.720Z,13.85
2022-09-28T06:29:44.809Z,19.65
2022-09-28T06:32:11.939Z,17.77
2022-09-28T06:34:38.734Z,14.65
2022-09-28T06:37:06.116Z,16.38
2022-09-28T06:39:33.038Z,16.17
2022-09-28T06:41:59.631Z,18.00
2022-09-28T06:44:37.543Z,20.73
2022-09-28T06:47:24.365Z,17.00
2022-09-28T06:50:14.129Z,17.58
2022-09-28T06:53:00.384Z,15.52
2022-09-28T06:55:47.159Z,21.58
2022-09-28T06:58:15.996Z,17.05
2022-09-28T07:00:42.932Z,16.55
2022-09-28T07:03:13.595Z,15.48
2022-09-28T07:06:12.901Z,18.75
2022-09-28T07:09:15.684Z,15.63
2022-09-28T07:12:07.643Z,16.13
2022-09-28T07:14:54.927Z,18.65
2022-09-28T07:17:22.030Z,15.27
2022-09-28T07:19:50.136Z,16.40
2022-09-28T07:22:19.104Z,13.82
2022-09-28T07:24:47.550Z,17.20
2022-09-28T07:27:36.746Z,16.20
2022-09-28T07:30:33.823Z,15.95
2022-09-28T07:33:05.205Z,15.63
2022-09-28T07:35:51.319Z,15.73
2022-09-28T07:38:18.127Z,18.90
2022-09-28T07:40:48.304Z,21.17
2022-09-28T07:43:16.820Z,15.77
2022-09-28T07:45:43.769Z,12.15
2022-09-28T07:50:52.586Z,13.63
2022-09-28T07:53:31.185Z,17.95
2022-09-28T07:56:16.594Z,14.30
2022-09-28T07:58:51.765Z,13.90
2022-09-28T08:01:44.308Z,13.45
2022-09-28T08:04:13.672Z,10.98
2022-09-28T08:06:43.957Z,10.57
2022-09-28T08:09:12.554Z,9.52
2022-09-28T08:11:57.952Z,7.53
2022-09-28T08:14:43.316Z,5.97
2022-09-28T08:17:30.152Z,7.45
2022-09-28T08:19:59.620Z,4.97
2022-09-28T08:22:27.596Z,5.25
2022-09-28T08:24:55.759Z,4.18
2022-09-28T08:27:22.377Z,6.40
2022-09-28T08:29:48.975Z,4.38
2022-09-28T08:32:38.245Z,2.90
2022-09-28T08:35:24.127Z,4.60
2022-09-28T08:38:12.540Z,2.50
2022-09-28T08:41:05.932Z,3.83
2022-09-28T08:44:15.650Z,7.07
2022-09-28T08:47:03.781Z,2.80
2022-09-28T08:49:53.128Z,5.13
2022-09-28T08:52:39.250Z,2.70
2022-09-28T08:55:19.663Z,3.78
2022-09-28T08:57:51.011Z,3.47
2022-09-28T09:00:20.946Z,3.23
2022-09-28T09:02:47.890Z,5.60
2022-09-28T09:05:20.799Z,2.28
2022-09-28T09:08:29.747Z,5.25
2022-09-28T09:11:09.419Z,7.32
2022-09-28T09:13:52.344Z,2.38
2022-09-28T09:16:36.741Z,2.08
2022-09-28T09:19:33.916Z,3.00
2022-09-28T09:22:28.134Z,1.83
2022-09-28T09:25:02.926Z,4.85
2022-09-28T09:27:46.067Z,3.22
2022-09-28T09:30:19.101Z,2.47
2022-09-28T09:33:03.481Z,1.90
2022-09-28T09:35:59.208Z,3.28
2022-09-28T09:38:57.560Z,1.77
2022-09-28T09:41:56.416Z,3.00
2022-09-28T09:45:04.201Z,4.43
2022-09-28T09:48:01.180Z,4.97
2022-09-28T09:50:35.447Z,2.80
2022-09-28T09:53:09.431Z,3.17
2022-09-28T09:55:41.355Z,1.90
2022-09-28T09:58:29.277Z,3.33
2022-09-28T10:01:16.929Z,1.85
2022-09-28T10:04:13.997Z,2.08
2022-09-28T10:06:41.925Z,1.95
2022-09-28T10:09:13.551Z,1.83
2022-09-28T10:14:15.565Z,1.10
2022-09-28T10:16:46.539Z,1.15
2022-09-28T10:19:30.117Z,1.55
2022-09-28T10:22:20.434Z,2.75
2022-09-28T10:24:50.583Z,1.52
2022-09-28T10:27:21.761Z,2.03
2022-09-28T10:29:53.858Z,1.70
2022-09-28T10:34:53.366Z,0.80
2022-09-28T10:37:23.244Z,1.27
2022-09-28T10:40:26.819Z,0.93
2022-09-28T10:43:00.583Z,2.95
2022-09-28T10:45:31.794Z,2.55
2022-09-28T10:47:59.126Z,1.65
2022-09-28T10:50:28.055Z,1.83
2022-09-28T10:53:12.242Z,3.45
2022-09-28T10:56:03.990Z,2.70
2022-09-28T10:58:37.041Z,0.77
2022-09-28T11:01:11.426Z,1.55
2022-09-28T11:03:49.284Z,1.38
2022-09-28T11:06:26.499Z,2.25
2022-09-28T11:08:56.005Z,1.00
2022-09-28T11:11:23.173Z,1.50
2022-09-28T11:14:00.877Z,1.15
2022-09-28T11:16:32.991Z,0.88
2022-09-28T11:19:05.933Z,2.03
2022-09-28T11:21:43.440Z,1.95
2022-09-28T11:24:19.799Z,2.08
2022-09-28T11:26:50.615Z,1.08
2022-09-28T11:29:34.807Z,3.70
2022-09-28T11:32:16.991Z,1.65
2022-09-28T11:35:02.981Z,0.50
2022-09-28T11:37:51.356Z,3.15
2022-09-28T11:40:42.729Z,2.17
2022-09-28T11:43:18.016Z,2.05
2022-09-28T11:45:52.127Z,2.45
2022-09-28T11:48:23.755Z,2.17
2022-09-28T11:50:53.393Z,1.23
2022-09-28T11:53:27.232Z,2.08
2022-09-28T11:56:08.671Z,0.60
2022-09-28T11:58:40.962Z,1.50
2022-09-28T12:01:19.167Z,2.58
2022-09-28T12:04:10.665Z,0.75
2022-09-28T12:06:43.904Z,1.23
2022-09-28T12:09:18.046Z,1.60
2022-09-28T12:12:00.251Z,1.52
2022-09-28T12:14:47.002Z,4.38
2022-09-28T12:17:24.850Z,2.00
2022-09-28T12:19:57.874Z,4.90
2022-09-28T12:22:32.323Z,1.25
2022-09-28T12:25:03.660Z,3.78
2022-09-28T12:27:39.811Z,2.25
2022-09-28T12:30:14.204Z,2.03
2022-09-28T12:32:46.310Z,3.58
2022-09-28T12:37:56.707Z,2.50
2022-09-28T12:40:37.610Z,2.92
2022-09-28T12:43:18.315Z,2.45
2022-09-28T12:46:11.987Z,0.95
2022-09-28T12:49:33.182Z,2.08
2022-09-28T12:51:50.016Z,1.55
2022-09-28T12:54:32.778Z,2.83
2022-09-28T12:57:15.486Z,5.05
2022-09-28T12:59:50.846Z,1.60
2022-09-28T13:02:33.885Z,4.10
2022-09-28T13:05:26.483Z,2.92
2022-09-28T13:08:02.769Z,0.90
2022-09-28T13:10:35.953Z,1.00
2022-09-28T13:13:22.943Z,2.40
2022-09-28T13:15:57.347Z,7.85
2022-09-28T13:18:31.025Z,2.45
2022-09-28T13:21:18.175Z,1.13
2022-09-28T13:23:47.184Z,1.73
2022-09-28T13:26:24.867Z,1.83
2022-09-28T13:28:56.895Z,2.35
2022-09-28T13:33:57.729Z,2.58
2022-09-28T13:36:37.952Z,1.20
2022-09-28T13:39:46.800Z,2.80
2022-09-28T13:42:38.028Z,2.25
2022-09-28T13:45:18.639Z,3.67
2022-09-28T13:48:01.324Z,1.65
2022-09-28T13:50:37.757Z,1.02
2022-09-28T13:53:15.964Z,1.15
2022-09-28T13:55:55.926Z,2.63
2022-09-28T13:58:27.877Z,1.70
2022-09-28T14:01:01.396Z,1.55
2022-09-28T14:03:42.950Z,6.57
2022-09-28T14:06:22.700Z,8.75
2022-09-28T14:09:21.742Z,2.83
2022-09-28T14:11:57.143Z,5.15
2022-09-28T14:14:46.576Z,3.63
2022-09-28T14:17:46.888Z,1.40
2022-09-28T14:20:16.851Z,1.55
2022-09-28T14:22:54.105Z,3.20
2022-09-28T14:25:23.682Z,3.75
2022-09-28T14:28:01.172Z,1.75
2022-09-28T14:30:46.028Z,2.38
2022-09-28T14:33:21.620Z,2.55
2022-09-28T14:35:52.992Z,1.42
2022-09-28T14:38:22.013Z,1.60
2022-09-28T14:41:00.367Z,4.63
2022-09-28T14:43:35.097Z,3.17
2022-09-28T14:46:31.352Z,1.10
2022-09-28T14:48:59.478Z,2.20
2022-09-28T14:51:59.915Z,1.17
2022-09-28T14:54:28.118Z,2.33
2022-09-28T14:57:05.625Z,2.65
2022-09-28T14:59:33.030Z,5.43
2022-09-28T15:02:04.638Z,2.38
2022-09-28T15:04:33.829Z,2.60
2022-09-28T15:07:02.164Z,1.85
2022-09-28T15:09:29.893Z,1.58
2022-09-28T15:12:00.102Z,2.58
2022-09-28T15:14:27.953Z,2.92
2022-09-28T15:16:54.614Z,3.22
2022-09-28T15:19:31.757Z,1.50
2022-09-28T15:21:59.248Z,2.72
2022-09-28T15:24:32.600Z,1.35
2022-09-28T15:26:59.498Z,2.58
2022-09-28T15:29:26.345Z,3.85
2022-09-28T15:31:54.637Z,2.63
2022-09-28T15:34:29.942Z,2.05
2022-09-28T15:36:56.661Z,2.75
2022-09-28T15:39:30.406Z,2.95
2022-09-28T15:41:59.839Z,1.92
2022-09-28T15:44:32.152Z,2.38
2022-09-28T15:47:08.519Z,2.47
2022-09-28T15:49:41.629Z,2.25
2022-09-28T15:52:23.457Z,3.58
2022-09-28T15:54:50.587Z,3.70
2022-09-28T15:57:37.358Z,2.67
2022-09-28T16:00:07.002Z,2.30
2022-09-28T16:02:38.413Z,2.42
2022-09-28T16:05:30.914Z,2.15
2022-09-28T16:08:02.470Z,1.83
2022-09-28T16:10:31.668Z,7.57
2022-09-28T16:13:09.681Z,2.42
2022-09-28T16:15:37.861Z,2.25
2022-09-28T16:18:14.319Z,2.33
2022-09-28T16:20:41.675Z,2.83
2022-09-28T16:23:17.167Z,1.58
2022-09-28T16:25:50.081Z,4.82
2022-09-28T16:28:25.489Z,1.63
2022-09-28T16:31:00.473Z,1.15
2022-09-28T16:33:29.611Z,2.03
2022-09-28T16:36:02.257Z,2.83
2022-09-28T16:38:28.861Z,3.28
2022-09-28T16:40:55.466Z,6.45
2022-09-28T16:43:26.066Z,1.85
2022-09-28T16:45:52.927Z,2.97
2022-09-28T16:48:19.983Z,3.58
2022-09-28T16:50:46.595Z,2.72
2022-09-28T16:53:14.982Z,3.72
2022-09-28T16:55:41.685Z,1.77
2022-09-28T16:58:08.431Z,4.70
2022-09-28T17:00:36.454Z,1.25
2022-09-28T17:03:12.734Z,4.15
2022-09-28T17:05:39.518Z,3.10
2022-09-28T17:08:06.196Z,4.70
2022-09-28T17:10:50.039Z,2.95
2022-09-28T17:13:25.855Z,1.60
2022-09-28T17:15:53.961Z,4.00
2022-09-28T17:18:21.155Z,3.58
2022-09-28T17:20:49.769Z,7.57
2022-09-28T17:23:17.120Z,7.38
2022-09-28T17:25:44.183Z,4.95
2022-09-28T17:28:19.167Z,5.30
2022-09-28T17:30:46.376Z,5.28
2022-09-28T17:33:14.670Z,6.15
2022-09-28T17:35:42.834Z,3.53
2022-09-28T17:38:10.904Z,2.55
2022-09-28T17:40:37.745Z,3.78
2022-09-28T17:43:04.428Z,2.20
2022-09-28T17:45:31.801Z,4.65
2022-09-28T17:48:00.074Z,3.03
2022-09-28T17:50:30.850Z,4.35
2022-09-28T17:52:58.221Z,3.75
2022-09-28T17:55:26.715Z,4.13
2022-09-28T17:57:53.335Z,4.22
2022-09-28T18:00:20.335Z,4.53
2022-09-28T18:02:47.069Z,7.82
2022-09-28T18:05:14.050Z,5.70
2022-09-28T18:07:47.405Z,5.65
2022-09-28T18:10:16.646Z,4.30
2022-09-28T18:12:46.115Z,5.13
2022-09-28T18:15:13.211Z,3.30
2022-09-28T18:17:39.959Z,3.70
2022-09-28T18:20:08.665Z,3.60
2022-09-28T18:22:35.312Z,3.42
2022-09-28T18:25:03.879Z,5.45
2022-09-28T18:27:31.361Z,5.32
2022-09-28T18:29:57.914Z,4.00
2022-09-28T18:32:24.723Z,3.20
2022-09-28T18:34:51.315Z,3.67
2022-09-28T18:37:18.272Z,3.55
2022-09-28T18:39:44.860Z,3.50
2022-09-28T18:42:13.529Z,3.85
2022-09-28T18:44:40.240Z,3.47
2022-09-28T18:47:06.910Z,3.05
2022-09-28T18:49:33.539Z,5.03
2022-09-28T18:52:00.506Z,3.45
2022-09-28T18:54:27.075Z,3.25
2022-09-28T18:56:54.902Z,4.20
2022-09-28T18:59:22.925Z,4.60
2022-09-28T19:01:49.801Z,3.72
2022-09-28T19:04:16.588Z,3.60
2022-09-28T19:06:43.250Z,5.72
2022-09-28T19:09:10.398Z,4.30
2022-09-28T19:11:37.068Z,3.58
2022-09-28T19:14:03.819Z,6.93
2022-09-28T19:16:31.950Z,5.00
2022-09-28T19:18:59.170Z,4.13
2022-09-28T19:21:26.140Z,4.10
2022-09-28T19:23:52.766Z,4.55
2022-09-28T19:26:21.721Z,4.57
2022-09-28T19:28:48.713Z,5.40
2022-09-28T19:31:15.876Z,5.38
2022-09-28T19:33:44.179Z,4.50
2022-09-28T19:36:13.444Z,8.77
2022-09-28T19:38:40.664Z,5.20
2022-09-28T19:41:11.268Z,6.32
2022-09-28T19:43:37.876Z,5.05
2022-09-28T19:46:05.875Z,5.07
2022-09-28T19:48:33.600Z,7.95
2022-09-28T19:51:04.085Z,5.40
2022-09-28T19:53:32.848Z,7.38
2022-09-28T19:56:00.467Z,5.35
2022-09-28T19:58:29.726Z,5.18
2022-09-28T20:00:56.291Z,9.02
2022-09-28T20:03:22.988Z,5.75
2022-09-28T20:05:55.905Z,6.72
2022-09-28T20:08:24.032Z,5.78
2022-09-28T20:10:51.052Z,5.88
2022-09-28T20:13:17.716Z,6.50
2022-09-28T20:15:44.625Z,6.03
2022-09-28T20:18:11.296Z,6.95
2022-09-28T20:20:38.078Z,6.22
2022-09-28T20:23:04.941Z,7.43
2022-09-28T20:25:32.816Z,5.95
2022-09-28T20:27:59.400Z,5.88
2022-09-28T20:30:26.050Z,6.00
2022-09-28T20:32:52.666Z,5.78
2022-09-28T20:35:30.302Z,8.35
2022-09-28T20:37:57.132Z,6.80
2022-09-28T20:40:23.740Z,7.82
2022-09-28T20:42:51.836Z,9.52
2022-09-28T20:45:18.404Z,6.40
2022-09-28T20:47:45.112Z,8.23
2022-09-28T20:50:11.606Z,6.72
2022-09-28T20:52:39.269Z,7.70
2022-09-28T20:55:06.590Z,7.55
2022-09-28T20:57:33.569Z,7.85
2022-09-28T21:00:01.923Z,8.55
2022-09-28T21:02:28.682Z,8.00
2022-09-28T21:04:55.288Z,7.55
2022-09-28T21:07:21.974Z,7.75
2022-09-28T21:09:48.539Z,8.05
2022-09-28T21:12:15.149Z,9.02
2022-09-28T21:14:41.719Z,7.70
2022-09-28T21:17:09.629Z,9.63
2022-09-28T21:19:36.303Z,8.02
2022-09-28T21:22:02.851Z,9.40
2022-09-28T21:24:29.529Z,7.47
2022-09-28T21:26:56.105Z,7.57
2022-09-28T21:29:22.710Z,7.88
2022-09-28T21:31:49.273Z,8.02
2022-09-28T21:34:19.047Z,7.90
2022-09-28T21:36:46.491Z,9.70
2022-09-28T21:39:13.760Z,8.07
2022-09-28T21:41:40.667Z,7.63
2022-09-28T21:44:08.081Z,8.95
2022-09-28T21:46:35.270Z,8.82
2022-09-28T21:49:03.101Z,11.48
2022-09-28T21:51:31.655Z,8.25
2022-09-28T21:53:58.440Z,10.52
2022-09-28T21:56:25.018Z,8.10
2022-09-28T21:58:51.636Z,8.63
2022-09-28T22:01:19.857Z,7.90
2022-09-28T22:03:48.757Z,10.68
2022-09-28T22:06:16.604Z,7.78
2022-09-28T22:08:45.136Z,7.95
2022-09-28T22:11:13.404Z,8.75
2022-09-28T22:13:42.363Z,9.52
2022-09-28T22:16:09.225Z,8.68
2022-09-28T22:18:36.125Z,11.77
2022-09-28T22:21:04.906Z,9.95
2022-09-28T22:23:31.495Z,8.43
2022-09-28T22:26:00.641Z,8.82
2022-09-28T22:28:27.403Z,9.85
2022-09-28T22:30:54.067Z,8.93
2022-09-28T22:33:20.753Z,8.65
2022-09-28T22:35:47.334Z,8.73
2022-09-28T22:38:13.902Z,9.90
2022-09-28T22:40:42.193Z,8.70
2022-09-28T22:43:10.251Z,8.13
2022-09-28T22:45:36.799Z,8.57
2022-09-28T22:48:03.459Z,9.68
2022-09-28T22:50:30.005Z,9.45
2022-09-28T22:52:56.525Z,8.60
2022-09-28T22:55:23.425Z,8.73
2022-09-28T22:57:49.976Z,8.75
2022-09-28T23:00:18.093Z,11.68
2022-09-28T23:02:44.702Z,12.32
2022-09-28T23:05:11.393Z,9.95
2022-09-28T23:07:38.034Z,10.02
2022-09-28T23:10:05.338Z,10.43
2022-09-28T23:12:31.892Z,10.13
2022-09-28T23:14:58.517Z,9.98
2022-09-28T23:17:26.396Z,10.45
2022-09-28T23:19:53.038Z,10.05
2022-09-28T23:22:19.560Z,9.02
2022-09-28T23:24:46.146Z,9.25
2022-09-28T23:27:12.724Z,9.85
2022-09-28T23:29:39.307Z,9.45
2022-09-28T23:32:06.591Z,9.07
2022-09-28T23:34:34.502Z,10.55
2022-09-28T23:37:01.042Z,10.50
2022-09-28T23:39:27.651Z,9.80
2022-09-28T23:41:54.141Z,8.68
2022-09-28T23:44:20.770Z,8.52
2022-09-28T23:46:47.366Z,10.57
2022-09-28T23:49:14.174Z,9.48
2022-09-28T23:51:42.079Z,8.43
2022-09-28T23:54:08.651Z,8.55
2022-09-28T23:56:35.174Z,9.13
2022-09-28T23:59:01.765Z,9.13
